Time;durP1;ratioP1;P1;durP2;ratioP2;P2;SDS_P1;SDS_P2;PMS_P1;PMS_P2;Temp;Humidity;BMP_temperature;BMP_pressure;BME280_temperature;BME280_humidity;BME280_pressure;Samples;Min_cycle;Max_cycle;Signal;HPM_P1;HPM_P2
2022/11/28 00:01:32;;;;;;;7.88;5.43;;;;;;;4.28;59.93;97091.28;5135044;27;20125;-62
2022/11/28 00:03:59;;;;;;;7.45;5.47;;;;;;;4.35;60.61;97079.16;5135212;27;20039;-63
2022/11/28 00:06:27;;;;;;;7.72;5.30;;;;;;;4.37;60.66;97090.38;5135126;27;20506;-62
2022/11/28 00:08:57;;;;;;;7.82;4.95;;;;;;;4.37;60.72;97082.59;5135010;27;20092;-62
2022/11/28 00:11:25;;;;;;;6.72;4.13;;;;;;;4.35;60.76;97092.97;5135011;27;20120;-61
2022/11/28 00:13:52;;;;;;;8.85;5.05;;;;;;;4.37;60.06;97096.41;5134941;27;20519;-61
2022/11/28 00:16:21;;;;;;;9.63;5.70;;;;;;;4.40;60.20;97096.38;5134742;27;20480;-63
2022/11/28 00:18:52;;;;;;;7.15;5.05;;;;;;;4.47;60.53;97097.22;5134572;27;20048;-63
2022/11/28 00:21:20;;;;;;;9.23;5.65;;;;;;;4.43;60.23;97091.19;5134702;27;20505;-62
2022/11/28 00:23:48;;;;;;;7.68;5.70;;;;;;;4.45;59.90;97085.16;5134756;27;20047;-63
2022/11/28 00:26:19;;;;;;;8.63;5.80;;;;;;;4.49;60.54;97095.47;5134818;27;20051;-63
2022/11/28 00:28:47;;;;;;;8.02;5.15;;;;;;;4.48;60.68;97098.94;5134715;27;20054;-61
2022/11/28 00:31:16;;;;;;;8.43;5.28;;;;;;;4.51;60.76;97108.44;5134782;27;20043;-61
2022/11/28 00:33:43;;;;;;;298.10;162.13;;;;;;;4.48;60.60;97100.69;5134503;27;20043;-63
2022/11/28 00:36:12;;;;;;;116.57;63.35;;;;;;;4.51;60.81;97096.34;5134520;27;20158;-63
2022/11/28 00:38:40;;;;;;;21.73;12.80;;;;;;;4.50;60.84;97097.22;5134452;27;20047;-63
2022/11/28 00:41:13;;;;;;;12.90;7.63;;;;;;;4.48;60.79;97091.16;5134545;27;20098;-61
2022/11/28 00:43:41;;;;;;;11.18;5.90;;;;;;;4.50;61.37;97085.97;5134412;27;20059;-63
2022/11/28 00:46:10;;;;;;;9.65;5.88;;;;;;;4.51;61.24;97092.88;5134449;27;20054;-61
2022/11/28 00:48:37;;;;;;;10.50;5.93;;;;;;;4.49;61.17;97087.69;5134317;27;20073;-63
2022/11/28 00:51:12;;;;;;;7.80;5.22;;;;;;;4.50;62.07;97079.09;5134209;27;20047;-63
2022/11/28 00:53:43;;;;;;;8.27;5.70;;;;;;;4.46;61.72;97079.97;5134248;27;20050;-62
2022/11/28 00:56:12;;;;;;;9.48;5.68;;;;;;;4.46;61.43;97076.50;5134241;27;20051;-63
2022/11/28 00:58:40;;;;;;;7.68;5.47;;;;;;;4.45;62.15;97078.22;5134332;27;20039;-62
2022/11/28 01:01:09;;;;;;;10.13;5.95;;;;;;;4.41;61.99;97071.34;5134094;27;20070;-63
2022/11/28 01:03:36;;;;;;;11.73;6.07;;;;;;;4.47;62.09;97089.47;5134257;27;20484;-62
2022/11/28 01:06:04;;;;;;;7.13;5.68;;;;;;;4.46;61.54;97077.38;5134128;27;20047;-63
2022/11/28 01:08:31;;;;;;;9.63;5.45;;;;;;;4.46;62.23;97072.19;5134146;27;20051;-63
2022/11/28 01:11:00;;;;;;;11.32;5.55;;;;;;;4.40;62.02;97072.22;5134214;27;20051;-63
2022/11/28 01:13:29;;;;;;;8.02;5.60;;;;;;;4.39;62.03;97071.34;5133984;27;20043;-64
2022/11/28 01:15:57;;;;;;;7.00;5.43;;;;;;;4.42;62.27;97075.66;5133846;27;20055;-63
2022/11/28 01:18:24;;;;;;;7.60;5.28;;;;;;;4.38;62.46;97067.03;5133870;27;20096;-62
2022/11/28 01:20:51;;;;;;;8.45;5.70;;;;;;;4.37;62.76;97067.91;5134054;27;20043;-63
2022/11/28 01:23:19;;;;;;;11.80;5.78;;;;;;;4.33;62.37;97063.59;5134046;27;20043;-63
2022/11/28 01:25:46;;;;;;;9.35;6.05;;;;;;;4.30;62.18;97056.72;5133986;27;20040;-63
2022/11/28 01:28:15;;;;;;;8.07;5.60;;;;;;;4.34;62.47;97067.94;5133956;27;20039;-62
2022/11/28 01:30:45;;;;;;;7.15;5.13;;;;;;;4.27;62.26;97058.44;5133844;27;20043;-61
2022/11/28 01:33:12;;;;;;;8.38;6.10;;;;;;;4.24;62.02;97054.16;5133851;27;20480;-61
2022/11/28 01:35:40;;;;;;;10.07;6.32;;;;;;;4.22;62.41;97055.91;5133748;27;20492;-63
2022/11/28 01:38:07;;;;;;;8.55;5.45;;;;;;;4.23;62.65;97049.84;5133852;27;20050;-62
2022/11/28 01:40:35;;;;;;;10.57;5.82;;;;;;;4.18;62.41;97051.56;5133703;27;20160;-62
2022/11/28 01:43:02;;;;;;;9.30;6.20;;;;;;;4.16;62.76;97045.56;5133797;27;20053;-63
2022/11/28 01:45:32;;;;;;;13.75;6.38;;;;;;;4.11;62.40;97037.81;5133696;27;20045;-63
2022/11/28 01:48:03;;;;;;;10.27;6.40;;;;;;;4.11;62.67;97035.22;5133812;27;20478;-63
2022/11/28 01:50:33;;;;;;;9.70;6.47;;;;;;;4.08;62.65;97031.78;5133715;27;20049;-63
2022/11/28 01:53:04;;;;;;;11.32;6.22;;;;;;;4.08;62.41;97032.66;5133626;27;20099;-63
2022/11/28 01:55:36;;;;;;;8.65;5.75;;;;;;;4.10;62.70;97033.50;5133627;27;20043;-62
2022/11/28 01:58:04;;;;;;;8.73;6.05;;;;;;;4.14;62.53;97032.63;5133696;27;20050;-63
2022/11/28 02:00:33;;;;;;;8.93;6.18;;;;;;;4.16;62.78;97035.22;5133607;27;20050;-63
2022/11/28 02:03:05;;;;;;;9.07;6.65;;;;;;;4.19;62.53;97023.97;5133446;27;20096;-64
2022/11/28 02:05:33;;;;;;;9.95;5.93;;;;;;;4.17;63.06;97032.59;5133543;27;20047;-63
2022/11/28 02:08:01;;;;;;;10.77;7.13;;;;;;;4.17;62.97;97032.59;5133577;27;20143;-63
2022/11/28 02:10:36;;;;;;;9.68;6.53;;;;;;;4.17;62.98;97026.56;5133609;27;20043;-63
2022/11/28 02:13:20;;;;;;;9.95;6.70;;;;;;;4.17;63.22;97031.75;5133517;27;20054;-63
2022/11/28 02:16:04;;;;;;;11.52;6.82;;;;;;;4.22;63.40;97030.00;5133304;27;20051;-63
2022/11/28 02:18:45;;;;;;;10.10;6.13;;;;;;;4.20;63.08;97025.69;5134082;27;20061;-64
2022/11/28 02:21:33;;;;;;;9.80;6.85;;;;;;;4.22;63.58;97023.94;5137273;27;20488;-60
2022/11/28 02:24:35;;;;;;;12.73;6.63;;;;;;;4.26;63.47;97025.66;5137198;27;20075;-62
2022/11/28 02:27:19;;;;;;;8.23;6.07;;;;;;;4.26;63.63;97025.66;5137055;27;20470;-63
2022/11/28 02:30:04;;;;;;;9.15;5.85;;;;;;;4.31;63.67;97023.91;5136962;27;20416;-63
2022/11/28 02:32:57;;;;;;;10.85;7.10;;;;;;;4.38;63.90;97016.97;5136963;27;20043;-63
2022/11/28 02:35:29;;;;;;;7.55;5.93;;;;;;;4.40;63.71;97012.63;5136851;27;20039;-63
2022/11/28 02:38:09;;;;;;;12.18;6.90;;;;;;;4.42;64.31;97014.34;5136812;27;20047;-63
2022/11/28 02:40:46;;;;;;;7.97;6.00;;;;;;;4.43;65.52;97012.63;5136821;27;20043;-63
2022/11/28 02:43:20;;;;;;;10.07;6.93;;;;;;;4.41;64.72;97012.63;5136746;27;20088;-63
2022/11/28 02:45:55;;;;;;;12.30;8.18;;;;;;;4.28;64.44;97011.81;5136639;27;20043;-63
2022/11/28 02:48:30;;;;;;;12.27;7.57;;;;;;;4.20;65.50;97015.31;5136679;27;20134;-61
2022/11/28 02:51:03;;;;;;;14.35;7.85;;;;;;;4.21;65.79;97006.69;5136673;27;20434;-63
2022/11/28 02:53:33;;;;;;;11.48;7.70;;;;;;;4.08;66.57;97004.16;5136725;27;20094;-62
2022/11/28 02:56:01;;;;;;;14.23;7.95;;;;;;;4.03;67.04;97001.59;5136634;27;20130;-62
2022/11/28 02:58:28;;;;;;;13.10;8.02;;;;;;;3.97;68.25;97009.38;5136593;27;20083;-62
2022/11/28 03:00:56;;;;;;;12.93;7.97;;;;;;;3.92;68.34;97003.38;5136516;27;20039;-62
2022/11/28 03:03:53;;;;;;;14.13;9.00;;;;;;;3.83;69.11;97001.69;5136389;27;20051;-62
2022/11/28 03:06:33;;;;;;;12.85;7.38;;;;;;;3.66;70.07;97007.78;5136421;27;20119;-62
2022/11/28 03:09:13;;;;;;;10.48;7.93;;;;;;;3.66;70.62;97014.66;5136337;27;20054;-62
2022/11/28 03:11:50;;;;;;;12.60;7.72;;;;;;;3.60;71.66;97012.97;5136199;27;20553;-63
2022/11/28 03:14:28;;;;;;;13.45;8.75;;;;;;;3.51;72.00;97012.97;5136183;27;20079;-60
2022/11/28 03:17:07;;;;;;;12.73;8.02;;;;;;;3.48;72.34;97015.56;5136016;27;20043;-62
2022/11/28 03:19:39;;;;;;;13.27;8.60;;;;;;;3.40;72.90;97005.22;5135994;27;20048;-63
2022/11/28 03:22:13;;;;;;;10.18;7.70;;;;;;;3.40;73.26;97008.69;5135980;27;20051;-63
2022/11/28 03:24:44;;;;;;;14.25;8.77;;;;;;;3.38;74.20;97010.44;5135974;27;20049;-62
2022/11/28 03:27:18;;;;;;;14.80;8.38;;;;;;;3.40;74.05;97003.50;5135934;27;20099;-62
2022/11/28 03:29:49;;;;;;;13.02;8.02;;;;;;;3.41;73.66;97009.56;5135070;27;20039;-63
2022/11/28 03:32:20;;;;;;;13.60;8.25;;;;;;;3.42;73.66;97006.09;5135562;27;20050;-62
2022/11/28 03:34:56;;;;;;;10.77;7.68;;;;;;;3.43;73.68;97012.13;5135831;27;20044;-63
2022/11/28 03:37:29;;;;;;;13.05;8.20;;;;;;;3.44;73.61;97012.13;5135602;27;20100;-62
2022/11/28 03:40:02;;;;;;;15.70;7.72;;;;;;;3.44;73.26;97003.50;5135595;27;20047;-63
2022/11/28 03:42:36;;;;;;;9.88;7.32;;;;;;;3.48;73.41;97013.84;5135659;27;20126;-62
2022/11/28 03:45:08;;;;;;;9.18;7.22;;;;;;;3.53;72.82;97026.78;5135607;27;20539;-63
2022/11/28 03:47:41;;;;;;;9.48;6.63;;;;;;;3.55;72.91;97022.44;5135546;27;20055;-61
2022/11/28 03:50:16;;;;;;;12.00;7.35;;;;;;;3.62;72.99;97018.13;5135508;27;20047;-63
2022/11/28 03:52:49;;;;;;;13.52;8.30;;;;;;;3.69;73.95;97014.66;5135328;27;20504;-63
2022/11/28 03:55:22;;;;;;;11.52;7.97;;;;;;;3.63;72.76;97010.38;5135265;27;20043;-62
2022/11/28 03:57:54;;;;;;;11.65;7.75;;;;;;;3.59;72.80;97018.13;5135172;27;20043;-63
2022/11/28 04:00:23;;;;;;;10.35;7.03;;;;;;;3.58;73.48;97019.00;5135333;27;20081;-62
2022/11/28 04:03:01;;;;;;;11.15;7.63;;;;;;;3.52;73.57;97012.09;5135192;27;20477;-63
2022/11/28 04:05:38;;;;;;;15.52;9.80;;;;;;;3.48;73.93;97007.81;5135204;27;20079;-62
2022/11/28 04:08:15;;;;;;;10.50;7.28;;;;;;;3.46;73.82;97010.41;5135073;27;20043;-63
2022/11/28 04:10:45;;;;;;;10.35;7.20;;;;;;;3.44;73.94;97019.91;5135127;27;20055;-63
2022/11/28 04:13:19;;;;;;;11.95;7.72;;;;;;;3.45;74.18;97020.75;5135023;27;20074;-63
2022/11/28 04:15:55;;;;;;;9.52;6.65;;;;;;;3.47;73.84;97022.50;5134863;27;20044;-63
2022/11/28 04:18:28;;;;;;;9.85;6.72;;;;;;;3.45;73.85;97019.03;5134652;27;20047;-63
2022/11/28 04:21:06;;;;;;;9.68;7.07;;;;;;;3.47;73.90;97021.63;5134743;27;20450;-60
2022/11/28 04:23:36;;;;;;;9.35;6.72;;;;;;;3.33;74.52;97025.09;5134828;27;20126;-60
2022/11/28 04:26:11;;;;;;;10.05;6.82;;;;;;;3.32;74.79;97025.09;5134867;27;20075;-60
2022/11/28 04:28:40;;;;;;;14.88;7.28;;;;;;;3.25;74.46;97026.81;5134707;27;20096;-63
2022/11/28 04:31:10;;;;;;;10.13;6.88;;;;;;;3.23;74.83;97026.81;5134720;27;20043;-60
2022/11/28 04:33:42;;;;;;;10.57;7.35;;;;;;;3.24;75.01;97027.66;5134589;27;20074;-60
2022/11/28 04:36:12;;;;;;;10.75;7.28;;;;;;;3.24;75.10;97025.97;5134646;27;20090;-61
2022/11/28 04:38:42;;;;;;;9.80;6.45;;;;;;;3.12;75.40;97021.66;5134682;27;20051;-63
2022/11/28 04:41:14;;;;;;;9.45;6.95;;;;;;;3.10;75.85;97022.53;5134271;27;20446;-62
2022/11/28 04:43:46;;;;;;;9.43;7.13;;;;;;;3.02;75.52;97017.34;5134629;27;20043;-62
2022/11/28 04:46:18;;;;;;;11.02;6.72;;;;;;;2.97;75.73;97024.22;5134485;27;20047;-62
2022/11/28 04:48:45;;;;;;;8.18;6.32;;;;;;;2.99;75.77;97017.34;5134375;27;20047;-61
2022/11/28 04:51:20;;;;;;;10.85;6.70;;;;;;;2.98;75.21;97024.22;5134511;27;20104;-62
2022/11/28 04:53:53;;;;;;;9.93;6.43;;;;;;;2.99;75.25;97025.09;5134350;27;20047;-63
2022/11/28 04:56:25;;;;;;;9.93;6.35;;;;;;;2.96;75.56;97030.28;5134279;27;20090;-63
2022/11/28 04:58:52;;;;;;;8.52;5.60;;;;;;;3.04;75.03;97031.13;5134247;27;20078;-62
2022/11/28 05:01:24;;;;;;;8.23;5.85;;;;;;;3.01;75.49;97025.97;5134242;27;20078;-60
2022/11/28 05:03:52;;;;;;;10.00;6.10;;;;;;;2.94;75.37;97019.06;5134232;27;20058;-63
2022/11/28 05:06:28;;;;;;;8.30;5.43;;;;;;;2.88;76.09;97012.16;5134216;27;20488;-62
2022/11/28 05:08:56;;;;;;;8.23;5.80;;;;;;;2.87;76.14;97018.22;5134116;27;20043;-60
2022/11/28 05:11:24;;;;;;;10.00;6.50;;;;;;;2.83;76.28;97014.75;5134176;27;20078;-60
2022/11/28 05:13:51;;;;;;;10.18;6.32;;;;;;;2.88;77.47;97015.63;5134017;27;20047;-61
2022/11/28 05:16:18;;;;;;;10.02;6.47;;;;;;;2.83;76.90;97027.66;5133905;27;20057;-62
2022/11/28 05:18:45;;;;;;;10.82;6.57;;;;;;;2.84;77.11;97034.59;5133933;27;20051;-62
2022/11/28 05:21:13;;;;;;;11.77;7.28;;;;;;;2.79;77.59;97044.03;5134145;27;20100;-62
2022/11/28 05:23:43;;;;;;;13.18;7.00;;;;;;;2.82;77.59;97041.47;5133993;27;20069;-62
2022/11/28 05:26:13;;;;;;;10.63;7.03;;;;;;;2.79;78.12;97049.22;5133929;27;20126;-61
2022/11/28 05:28:44;;;;;;;9.77;7.15;;;;;;;2.79;77.90;97044.03;5133874;27;20085;-62
2022/11/28 05:31:12;;;;;;;10.88;6.70;;;;;;;2.78;78.25;97048.38;5133998;27;20050;-62
2022/11/28 05:33:40;;;;;;;8.52;6.43;;;;;;;2.80;78.37;97057.84;5133818;27;20492;-62
2022/11/28 05:36:09;;;;;;;8.57;6.43;;;;;;;2.74;78.60;97051.78;5133781;27;20472;-61
2022/11/28 05:38:37;;;;;;;9.32;5.93;;;;;;;2.77;78.44;97062.13;5133879;27;20412;-62
2022/11/28 05:41:06;;;;;;;8.70;6.38;;;;;;;2.78;78.40;97061.28;5133876;27;20145;-63
2022/11/28 05:43:33;;;;;;;9.63;6.40;;;;;;;2.75;78.56;97063.88;5133776;27;20488;-62
2022/11/28 05:46:04;;;;;;;10.77;6.53;;;;;;;2.78;78.79;97066.47;5133735;27;20083;-61
2022/11/28 05:48:31;;;;;;;10.23;6.32;;;;;;;2.79;78.70;97069.88;5133724;27;20079;-61
2022/11/28 05:51:04;;;;;;;9.07;6.28;;;;;;;2.82;78.93;97058.69;5133726;27;20516;-61
2022/11/28 05:53:31;;;;;;;10.73;7.35;;;;;;;2.76;79.08;97044.91;5134653;27;20558;-62
2022/11/28 05:55:59;;;;;;;11.30;6.80;;;;;;;2.67;79.36;97037.13;5137661;27;20550;-61
2022/11/28 05:58:29;;;;;;;10.18;6.80;;;;;;;2.69;79.69;97031.97;5137583;27;20051;-61
2022/11/28 06:00:57;;;;;;;11.95;6.78;;;;;;;2.70;80.01;97029.41;5137603;27;20108;-61
2022/11/28 06:03:24;;;;;;;8.38;6.35;;;;;;;2.75;80.07;97027.69;5137517;27;20088;-61
2022/11/28 06:05:51;;;;;;;12.88;7.70;;;;;;;2.73;79.61;97028.53;5137580;27;20043;-61
2022/11/28 06:08:18;;;;;;;9.30;7.72;;;;;;;2.72;79.46;97027.69;5137433;27;20069;-61
2022/11/28 06:10:46;;;;;;;10.75;7.25;;;;;;;2.82;79.42;97036.28;5137348;27;20047;-61
2022/11/28 06:13:13;;;;;;;9.73;6.82;;;;;;;2.82;79.07;97033.72;5137333;27;20488;-61
2022/11/28 06:15:43;;;;;;;9.23;6.70;;;;;;;2.83;78.88;97032.84;5137355;27;20051;-61
2022/11/28 06:18:11;;;;;;;7.78;6.22;;;;;;;2.82;78.53;97031.13;5136945;27;20509;-60
2022/11/28 06:20:38;;;;;;;9.70;6.97;;;;;;;2.86;79.19;97035.44;5137130;27;20051;-61
2022/11/28 06:23:06;;;;;;;8.55;6.45;;;;;;;2.87;78.92;97033.72;5137150;27;20129;-61
2022/11/28 06:25:34;;;;;;;11.00;6.22;;;;;;;2.92;78.63;97033.72;5137130;27;20057;-61
2022/11/28 06:28:01;;;;;;;11.57;5.60;;;;;;;2.94;78.88;97038.03;5137057;27;20047;-61
2022/11/28 06:30:28;;;;;;;9.05;6.32;;;;;;;2.99;78.56;97033.72;5136990;27;20047;-61
2022/11/28 06:32:56;;;;;;;12.98;9.30;;;;;;;2.98;78.83;97018.22;5137192;27;20104;-61
2022/11/28 06:35:23;;;;;;;7.70;6.13;;;;;;;2.98;78.50;97019.06;5137000;27;20039;-61
2022/11/28 06:37:50;;;;;;;8.05;6.35;;;;;;;3.02;78.81;97018.22;5136865;27;20107;-61
2022/11/28 06:40:19;;;;;;;8.50;5.43;;;;;;;3.05;78.20;97012.19;5137082;27;20051;-61
2022/11/28 06:42:49;;;;;;;6.95;5.47;;;;;;;3.10;78.24;97012.19;5136720;27;20043;-61
2022/11/28 06:45:16;;;;;;;7.25;5.43;;;;;;;3.11;78.06;97006.16;5136815;27;20700;-61
2022/11/28 06:47:43;;;;;;;8.55;6.15;;;;;;;3.12;78.33;97000.97;5136737;27;20692;-61
2022/11/28 06:50:11;;;;;;;8.85;6.30;;;;;;;3.16;78.09;97009.56;5136575;27;20130;-61
2022/11/28 06:52:38;;;;;;;8.00;6.13;;;;;;;3.21;78.00;97013.03;5136696;27;20117;-61
2022/11/28 06:55:06;;;;;;;9.02;5.68;;;;;;;3.27;77.86;97009.56;5136605;27;20477;-61
2022/11/28 06:57:34;;;;;;;8.38;5.43;;;;;;;3.35;77.13;97013.03;5136353;27;20055;-61
2022/11/28 07:00:01;;;;;;;8.45;6.10;;;;;;;3.38;76.99;97013.03;5136532;27;20054;-61
2022/11/28 07:02:28;;;;;;;9.70;6.10;;;;;;;3.46;76.91;97014.72;5136428;27;20047;-61
2022/11/28 07:04:55;;;;;;;10.23;6.70;;;;;;;3.58;77.10;97019.84;5136312;27;20121;-61
2022/11/28 07:07:23;;;;;;;9.38;7.10;;;;;;;3.63;76.51;97010.38;5136384;27;20047;-61
2022/11/28 07:09:51;;;;;;;8.30;6.25;;;;;;;3.64;75.83;97006.03;5136271;27;20047;-63
2022/11/28 07:12:18;;;;;;;9.30;6.22;;;;;;;3.75;76.00;97013.78;5136336;27;20471;-60
2022/11/28 07:14:45;;;;;;;9.05;6.07;;;;;;;3.85;76.16;97017.22;5136157;27;20051;-63
2022/11/28 07:17:12;;;;;;;9.02;6.45;;;;;;;3.85;74.88;97019.78;5136017;27;20442;-63
2022/11/28 07:19:39;;;;;;;7.60;6.00;;;;;;;3.81;75.35;97018.06;5136027;27;20053;-62
2022/11/28 07:22:06;;;;;;;9.40;6.10;;;;;;;3.82;74.99;97014.63;5136213;27;20047;-62
2022/11/28 07:24:35;;;;;;;6.88;5.30;;;;;;;3.81;74.39;97011.16;5135940;27;20459;-62
2022/11/28 07:27:01;;;;;;;9.20;6.05;;;;;;;3.82;75.00;97012.88;5135891;27;20074;-63
2022/11/28 07:29:34;;;;;;;7.47;4.85;;;;;;;3.74;74.23;97014.66;5135841;27;20047;-61
2022/11/28 07:32:02;;;;;;;7.07;4.97;;;;;;;3.82;74.98;97012.88;5135864;27;20142;-60
2022/11/28 07:34:29;;;;;;;6.10;4.07;;;;;;;3.92;74.16;97005.97;5135786;27;20446;-62
2022/11/28 07:36:56;;;;;;;6.43;4.47;;;;;;;3.94;74.32;97014.56;5135604;27;20100;-63
2022/11/28 07:39:23;;;;;;;7.05;5.03;;;;;;;3.95;73.54;97005.94;5135678;27;20078;-63
2022/11/28 07:41:51;;;;;;;7.78;5.47;;;;;;;3.96;74.14;97018.03;5135598;27;20457;-63
2022/11/28 07:44:18;;;;;;;5.65;4.70;;;;;;;4.07;74.11;97002.44;5135636;27;20126;-63
2022/11/28 07:46:46;;;;;;;7.03;5.60;;;;;;;4.20;73.79;97007.53;5135492;27;20129;-62
2022/11/28 07:49:14;;;;;;;5.95;4.15;;;;;;;4.22;73.21;97004.09;5135430;27;20043;-63
2022/11/28 07:51:41;;;;;;;5.88;4.45;;;;;;;4.31;72.89;97010.97;5135392;27;20049;-62
2022/11/28 07:54:09;;;;;;;5.82;4.30;;;;;;;4.27;72.45;97002.34;5135333;27;20047;-62
2022/11/28 07:56:37;;;;;;;5.40;4.15;;;;;;;4.28;72.73;97006.63;5135219;27;20039;-61
2022/11/28 07:59:06;;;;;;;4.90;4.18;;;;;;;4.20;72.88;97004.97;5135359;27;20134;-62
2022/11/28 08:01:35;;;;;;;5.15;4.07;;;;;;;4.21;73.22;97004.94;5135369;27;20039;-62
2022/11/28 08:04:05;;;;;;;5.50;4.18;;;;;;;4.25;72.94;97009.25;5135172;27;20055;-60
2022/11/28 08:06:36;;;;;;;5.40;4.25;;;;;;;4.25;73.83;97001.47;5135411;27;20043;-62
2022/11/28 08:09:03;;;;;;;;;;;;;;;4.43;73.09;97008.28;5135783;27;20107;-59
2022/11/28 08:11:31;;;;;;;4.35;3.70;;;;;;;4.48;74.26;97002.25;5135085;27;19955;-62
2022/11/28 08:13:58;;;;;;;5.50;3.80;;;;;;;4.48;73.46;97008.25;5134916;27;20492;-61
2022/11/28 08:16:29;;;;;;;6.18;5.07;;;;;;;4.56;73.28;97008.22;5134278;27;20409;-60
2022/11/28 08:18:57;;;;;;;11.48;7.60;;;;;;;4.65;73.13;97012.47;5134618;27;20051;-61
2022/11/28 08:21:26;;;;;;;12.55;7.90;;;;;;;4.61;74.62;97003.00;5134954;27;20103;-61
2022/11/28 08:23:54;;;;;;;7.13;5.53;;;;;;;4.65;73.97;96999.50;5134853;27;20093;-61
2022/11/28 08:26:23;;;;;;;7.05;4.90;;;;;;;4.74;73.50;97006.34;5134908;27;20484;-61
2022/11/28 08:28:52;;;;;;;5.32;4.50;;;;;;;4.82;73.24;97002.00;5134794;27;20583;-60
2022/11/28 08:31:22;;;;;;;5.63;3.63;;;;;;;4.81;73.92;96995.06;5134799;27;20050;-61
2022/11/28 08:33:51;;;;;;;5.20;3.07;;;;;;;4.64;72.16;96987.44;5134684;27;20175;-61
2022/11/28 08:36:19;;;;;;;4.25;3.15;;;;;;;4.57;73.82;96978.00;5134602;27;20326;-61
2022/11/28 08:38:47;;;;;;;4.82;3.13;;;;;;;4.47;75.05;96977.16;5134475;27;20099;-61
2022/11/28 08:41:17;;;;;;;4.28;2.70;;;;;;;4.46;75.42;96985.81;5134608;27;20053;-60
2022/11/28 08:43:45;;;;;;;4.32;3.47;;;;;;;4.49;75.20;96975.44;5134469;27;20051;-61
2022/11/28 08:46:15;;;;;;;4.15;3.00;;;;;;;4.52;76.18;96978.03;5134422;27;20080;-60
2022/11/28 08:48:42;;;;;;;3.80;3.00;;;;;;;4.50;75.41;96974.56;5134363;27;20050;-61
2022/11/28 08:51:15;;;;;;;3.28;2.42;;;;;;;4.51;75.16;96977.16;5134331;27;20485;-62
2022/11/28 08:53:42;;;;;;;4.65;2.60;;;;;;;4.49;76.46;96976.28;5134344;27;20087;-62
2022/11/28 08:56:10;;;;;;;3.28;2.97;;;;;;;4.54;75.16;96977.13;5134300;27;20043;-61
2022/11/28 08:58:37;;;;;;;5.05;3.92;;;;;;;4.61;75.53;96987.47;5134301;27;20389;-62
2022/11/28 09:01:04;;;;;;;3.88;3.47;;;;;;;4.57;74.81;96978.81;5134249;27;20488;-62
2022/11/28 09:03:32;;;;;;;4.55;4.03;;;;;;;4.68;75.58;96979.63;5134185;27;20477;-62
2022/11/28 09:06:01;;;;;;;5.28;4.28;;;;;;;4.78;75.81;96975.22;5134199;27;20050;-63
2022/11/28 09:08:30;;;;;;;3.92;3.53;;;;;;;4.87;75.16;96963.03;5134255;27;20043;-63
2022/11/28 09:10:57;;;;;;;3.33;3.00;;;;;;;4.98;75.11;96962.97;5134217;27;20086;-63
2022/11/28 09:13:24;;;;;;;4.45;3.58;;;;;;;4.99;75.07;96959.47;5133934;27;20496;-62
2022/11/28 09:15:51;;;;;;;4.53;3.28;;;;;;;5.01;73.72;96958.63;5134035;27;20067;-61
2022/11/28 09:18:19;;;;;;;3.42;2.78;;;;;;;4.98;73.82;96944.81;5133780;27;20488;-61
2022/11/28 09:20:46;;;;;;;4.10;3.28;;;;;;;5.09;73.81;96949.91;5134115;27;20046;-62
2022/11/28 09:23:13;;;;;;;4.50;3.15;;;;;;;5.15;73.74;96949.84;5134148;27;20074;-61
2022/11/28 09:25:42;;;;;;;3.25;2.88;;;;;;;5.16;73.11;96951.56;5134082;27;20050;-62
2022/11/28 09:28:09;;;;;;;2.95;2.60;;;;;;;5.10;72.68;96946.44;5134228;27;20083;-62
2022/11/28 09:30:36;;;;;;;6.00;3.03;;;;;;;5.05;72.37;96952.53;5138184;27;20070;-62
2022/11/28 09:33:03;;;;;;;3.47;2.85;;;;;;;5.08;72.40;96954.22;5138126;27;20488;-62
2022/11/28 09:35:30;;;;;;;3.45;2.58;;;;;;;4.99;71.38;96950.00;5138113;27;20044;-62
2022/11/28 09:37:58;;;;;;;3.72;2.67;;;;;;;4.90;72.11;96935.38;5138026;27;20055;-62
2022/11/28 09:40:32;;;;;;;3.22;2.83;;;;;;;4.73;71.61;96937.25;5137973;27;20100;-62
2022/11/28 09:43:02;;;;;;;3.70;2.58;;;;;;;4.71;72.12;96932.09;5137971;27;20045;-62
2022/11/28 09:45:30;;;;;;;3.10;2.80;;;;;;;4.72;72.26;96932.97;5137904;27;20043;-62
2022/11/28 09:48:03;;;;;;;3.88;3.05;;;;;;;4.61;70.46;96928.69;5137935;27;20130;-62
2022/11/28 09:50:36;;;;;;;4.13;2.88;;;;;;;4.50;71.30;96925.34;5137853;27;20126;-62
2022/11/28 09:53:13;;;;;;;3.10;2.70;;;;;;;4.35;72.17;96911.63;5137698;27;20043;-62
2022/11/28 09:55:45;;;;;;;3.95;3.45;;;;;;;4.29;72.58;96915.13;5137781;27;20497;-62
2022/11/28 09:58:19;;;;;;;3.92;2.53;;;;;;;4.29;71.90;96909.06;5137666;27;20057;-62
2022/11/28 10:00:52;;;;;;;4.07;3.40;;;;;;;4.29;73.01;96899.59;5137614;27;20082;-62
2022/11/28 10:03:35;;;;;;;3.33;2.40;;;;;;;4.23;72.80;96912.56;5137557;27;20403;-62
2022/11/28 10:06:13;;;;;;;4.18;2.47;;;;;;;4.10;72.26;96908.34;5137547;27;20051;-63
2022/11/28 10:08:54;;;;;;;2.80;2.53;;;;;;;4.00;72.75;96908.41;5137499;27;20080;-62
2022/11/28 10:11:34;;;;;;;5.60;2.92;;;;;;;3.99;72.62;96904.09;5137382;27;20043;-61
2022/11/28 10:14:17;;;;;;;2.90;2.58;;;;;;;3.94;73.41;96911.00;5137458;27;20040;-62
2022/11/28 10:16:55;;;;;;;2.00;1.85;;;;;;;3.90;72.57;96905.00;5137367;27;20469;-61
2022/11/28 10:19:32;;;;;;;3.78;2.88;;;;;;;3.94;73.94;96903.25;5136974;27;20115;-62
2022/11/28 10:22:05;;;;;;;3.15;2.65;;;;;;;4.07;74.35;96892.81;5137209;27;20488;-62
2022/11/28 10:24:37;;;;;;;3.53;2.88;;;;;;;4.22;74.33;96903.09;5137241;27;20051;-63
2022/11/28 10:27:06;;;;;;;5.40;4.45;;;;;;;4.28;74.65;96900.44;5137076;27;20039;-62
2022/11/28 10:29:45;;;;;;;3.35;2.83;;;;;;;4.28;73.89;96897.00;5137125;27;20078;-62
2022/11/28 10:32:16;;;;;;;2.53;2.30;;;;;;;4.27;74.22;96888.38;5137104;27;20100;-61
2022/11/28 10:34:49;;;;;;;9.05;2.90;;;;;;;4.24;74.74;96887.53;5137040;27;20511;-63
2022/11/28 10:37:24;;;;;;;2.67;2.47;;;;;;;4.30;73.81;96884.88;5136974;27;20054;-61
2022/11/28 10:39:51;;;;;;;3.90;2.70;;;;;;;4.37;74.31;96886.56;5136137;27;20047;-62
2022/11/28 10:42:26;;;;;;;3.35;2.72;;;;;;;4.41;75.40;96877.91;5136960;27;20100;-62
2022/11/28 10:45:06;;;;;;;4.03;2.63;;;;;;;4.35;74.73;96877.97;5136709;27;20047;-60
2022/11/28 10:47:59;;;;;;;8.30;3.45;;;;;;;4.48;75.35;96875.28;5136757;27;20078;-62
2022/11/28 10:50:37;;;;;;;3.05;2.40;;;;;;;4.36;73.19;96877.06;5136697;27;20081;-63
2022/11/28 10:53:13;;;;;;;5.80;4.07;;;;;;;4.46;74.02;96875.28;5136614;27;20047;-61
2022/11/28 10:55:48;;;;;;;4.22;3.03;;;;;;;4.49;74.53;96877.00;5136518;27;20535;-62
2022/11/28 10:58:22;;;;;;;3.20;2.40;;;;;;;4.58;74.57;96873.47;5136441;27;20549;-62
2022/11/28 11:00:54;;;;;;;5.47;4.70;;;;;;;4.66;76.17;96869.91;5136544;27;20055;-62
2022/11/28 11:03:27;;;;;;;5.47;4.22;;;;;;;4.73;74.91;96873.31;5136374;27;20043;-63
2022/11/28 11:05:54;;;;;;;9.85;6.15;;;;;;;4.73;75.13;96873.31;5136394;27;20476;-61
2022/11/28 11:08:23;;;;;;;4.25;3.80;;;;;;;4.80;75.54;96861.16;5136277;27;20039;-61
2022/11/28 11:10:52;;;;;;;3.17;2.88;;;;;;;4.78;75.47;96863.75;5136499;27;20053;-61
2022/11/28 11:13:22;;;;;;;4.43;3.08;;;;;;;4.83;75.76;96870.63;5136247;27;20043;-61
2022/11/28 11:15:58;;;;;;;2.90;2.47;;;;;;;4.72;74.78;96857.78;5136246;27;20126;-60
2022/11/28 11:18:27;;;;;;;2.40;2.20;;;;;;;4.67;75.18;96863.00;5135787;27;20055;-61
2022/11/28 11:21:08;;;;;;;2.35;2.15;;;;;;;4.64;74.80;96863.03;5136074;27;20043;-62
2022/11/28 11:23:36;;;;;;;2.85;2.30;;;;;;;4.52;74.15;96861.41;5135962;27;20047;-62
2022/11/28 11:26:08;;;;;;;2.40;2.20;;;;;;;4.43;75.84;96854.59;5135947;27;20039;-62
2022/11/28 11:28:44;;;;;;;3.03;2.72;;;;;;;4.32;75.28;96840.84;5135873;27;20122;-63
2022/11/28 11:31:27;;;;;;;4.57;4.18;;;;;;;4.37;75.77;96845.09;5136029;27;20043;-60
2022/11/28 11:34:02;;;;;;;4.50;3.95;;;;;;;4.40;75.77;96849.44;5135748;27;20549;-63
2022/11/28 11:36:31;;;;;;;3.30;3.00;;;;;;;4.41;75.94;96844.22;5135829;27;20488;-62
2022/11/28 11:39:07;;;;;;;2.78;2.47;;;;;;;4.47;76.72;96845.03;5135635;27;20053;-62
2022/11/28 11:41:35;;;;;;;3.30;2.50;;;;;;;4.52;76.84;96838.94;5135623;27;20492;-62
2022/11/28 11:44:34;;;;;;;3.45;2.40;;;;;;;4.63;77.54;96838.84;5135624;27;20126;-62
2022/11/28 11:47:06;;;;;;;2.70;2.50;;;;;;;4.53;76.30;96834.63;5135574;27;20043;-62
2022/11/28 11:49:36;;;;;;;2.30;2.10;;;;;;;4.54;77.31;96833.75;5135512;27;20047;-61
2022/11/28 11:52:06;;;;;;;2.10;1.90;;;;;;;4.55;76.14;96836.31;5134535;27;20157;-60
2022/11/28 11:54:33;;;;;;;2.30;2.10;;;;;;;4.45;76.36;96842.47;5135348;27;20131;-62
2022/11/28 11:57:03;;;;;;;6.72;1.80;;;;;;;4.53;76.24;96837.22;5135287;27;20131;-60